sensor_id;sensor_type;location;lat;lon;timestamp;P1;durP1;ratioP1;P2;durP2;ratioP2
49614;SDS011;35517;45.272;9.984;2023-04-05T00:01:41;9.23;;;4.90;;
49614;SDS011;35517;45.272;9.984;2023-04-05T00:04:08;14.60;;;5.05;;
49614;SDS011;35517;45.272;9.984;2023-04-05T00:06:34;6.32;;;3.53;;
49614;SDS011;35517;45.272;9.984;2023-04-05T00:09:04;7.65;;;4.18;;
49614;SDS011;35517;45.272;9.984;2023-04-05T00:11:31;11.70;;;4.45;;
49614;SDS011;35517;45.272;9.984;2023-04-05T00:13:58;9.65;;;4.32;;
49614;SDS011;35517;45.272;9.984;2023-04-05T00:16:25;8.77;;;4.00;;
49614;SDS011;35517;45.272;9.984;2023-04-05T00:18:52;7.32;;;4.20;;
49614;SDS011;35517;45.272;9.984;2023-04-05T00:21:19;10.38;;;4.40;;
49614;SDS011;35517;45.272;9.984;2023-04-05T00:23:53;11.32;;;4.38;;
49614;SDS011;35517;45.272;9.984;2023-04-05T00:26:21;8.05;;;4.72;;
49614;SDS011;35517;45.272;9.984;2023-04-05T00:28:52;13.18;;;6.28;;
49614;SDS011;35517;45.272;9.984;2023-04-05T00:31:18;10.43;;;4.60;;
49614;SDS011;35517;45.272;9.984;2023-04-05T00:33:45;10.48;;;4.63;;
49614;SDS011;35517;45.272;9.984;2023-04-05T00:36:15;8.35;;;4.03;;
49614;SDS011;35517;45.272;9.984;2023-04-05T00:38:43;11.50;;;4.90;;
49614;SDS011;35517;45.272;9.984;2023-04-05T00:41:10;7.70;;;4.32;;
49614;SDS011;35517;45.272;9.984;2023-04-05T00:43:36;13.20;;;4.40;;
49614;SDS011;35517;45.272;9.984;2023-04-05T00:46:03;6.97;;;3.80;;
49614;SDS011;35517;45.272;9.984;2023-04-05T00:48:30;7.70;;;4.32;;
49614;SDS011;35517;45.272;9.984;2023-04-05T00:51:00;10.93;;;4.68;;
49614;SDS011;35517;45.272;9.984;2023-04-05T00:53:27;8.23;;;4.47;;
49614;SDS011;35517;45.272;9.984;2023-04-05T00:55:55;9.70;;;4.70;;
49614;SDS011;35517;45.272;9.984;2023-04-05T00:58:22;6.60;;;4.10;;
49614;SDS011;35517;45.272;9.984;2023-04-05T01:03:18;5.72;;;3.95;;
49614;SDS011;35517;45.272;9.984;2023-04-05T01:11:08;9.57;;;3.53;;
49614;SDS011;35517;45.272;9.984;2023-04-05T01:13:35;7.00;;;3.90;;
49614;SDS011;35517;45.272;9.984;2023-04-05T01:16:02;9.15;;;4.45;;
49614;SDS011;35517;45.272;9.984;2023-04-05T01:18:29;7.35;;;4.70;;
49614;SDS011;35517;45.272;9.984;2023-04-05T01:26:39;6.15;;;4.50;;
49614;SDS011;35517;45.272;9.984;2023-04-05T01:31:22;7.38;;;4.22;;
49614;SDS011;35517;45.272;9.984;2023-04-05T01:33:58;11.35;;;4.32;;
49614;SDS011;35517;45.272;9.984;2023-04-05T01:36:38;13.75;;;4.45;;
49614;SDS011;35517;45.272;9.984;2023-04-05T01:39:06;5.88;;;3.60;;
49614;SDS011;35517;45.272;9.984;2023-04-05T01:41:37;7.55;;;4.75;;
49614;SDS011;35517;45.272;9.984;2023-04-05T01:44:04;8.90;;;4.03;;
49614;SDS011;35517;45.272;9.984;2023-04-05T01:46:31;5.32;;;3.92;;
49614;SDS011;35517;45.272;9.984;2023-04-05T01:48:57;7.05;;;4.40;;
49614;SDS011;35517;45.272;9.984;2023-04-05T01:51:24;6.43;;;3.95;;
49614;SDS011;35517;45.272;9.984;2023-04-05T01:53:50;7.15;;;3.88;;
49614;SDS011;35517;45.272;9.984;2023-04-05T01:56:17;8.07;;;4.22;;
49614;SDS011;35517;45.272;9.984;2023-04-05T01:58:43;7.47;;;4.10;;
49614;SDS011;35517;45.272;9.984;2023-04-05T02:01:10;9.10;;;4.53;;
49614;SDS011;35517;45.272;9.984;2023-04-05T02:03:36;4.22;;;3.28;;
49614;SDS011;35517;45.272;9.984;2023-04-05T02:06:03;6.47;;;3.83;;
49614;SDS011;35517;45.272;9.984;2023-04-05T02:08:30;9.70;;;4.40;;
49614;SDS011;35517;45.272;9.984;2023-04-05T02:10:56;10.63;;;4.47;;
49614;SDS011;35517;45.272;9.984;2023-04-05T02:13:23;7.05;;;3.63;;
49614;SDS011;35517;45.272;9.984;2023-04-05T02:15:50;10.55;;;3.90;;
49614;SDS011;35517;45.272;9.984;2023-04-05T02:18:17;10.73;;;4.10;;
49614;SDS011;35517;45.272;9.984;2023-04-05T02:20:50;5.90;;;3.60;;
49614;SDS011;35517;45.272;9.984;2023-04-05T02:23:19;6.45;;;3.30;;
49614;SDS011;35517;45.272;9.984;2023-04-05T02:25:46;6.78;;;3.92;;
49614;SDS011;35517;45.272;9.984;2023-04-05T02:28:12;7.57;;;3.97;;
49614;SDS011;35517;45.272;9.984;2023-04-05T02:30:39;9.68;;;4.32;;
49614;SDS011;35517;45.272;9.984;2023-04-05T02:33:09;5.82;;;3.88;;
49614;SDS011;35517;45.272;9.984;2023-04-05T02:35:35;21.38;;;5.68;;
49614;SDS011;35517;45.272;9.984;2023-04-05T02:38:02;6.43;;;3.65;;
49614;SDS011;35517;45.272;9.984;2023-04-05T02:40:29;10.30;;;4.82;;
49614;SDS011;35517;45.272;9.984;2023-04-05T02:42:55;11.15;;;5.97;;
49614;SDS011;35517;45.272;9.984;2023-04-05T02:45:22;10.32;;;6.20;;
49614;SDS011;35517;45.272;9.984;2023-04-05T02:47:49;6.53;;;4.53;;
49614;SDS011;35517;45.272;9.984;2023-04-05T02:50:16;6.65;;;4.13;;
49614;SDS011;35517;45.272;9.984;2023-04-05T02:52:45;7.60;;;4.35;;
49614;SDS011;35517;45.272;9.984;2023-04-05T02:55:16;7.68;;;4.10;;
49614;SDS011;35517;45.272;9.984;2023-04-05T02:57:43;11.75;;;4.13;;
49614;SDS011;35517;45.272;9.984;2023-04-05T03:00:36;16.20;;;4.37;;
49614;SDS011;35517;45.272;9.984;2023-04-05T03:03:03;5.55;;;3.60;;
49614;SDS011;35517;45.272;9.984;2023-04-05T03:05:32;10.00;;;3.83;;
49614;SDS011;35517;45.272;9.984;2023-04-05T03:07:58;7.57;;;3.88;;
49614;SDS011;35517;45.272;9.984;2023-04-05T03:10:29;5.38;;;3.75;;
49614;SDS011;35517;45.272;9.984;2023-04-05T03:13:04;11.60;;;4.25;;
49614;SDS011;35517;45.272;9.984;2023-04-05T03:15:31;5.78;;;3.90;;
49614;SDS011;35517;45.272;9.984;2023-04-05T03:18:02;6.75;;;3.22;;
49614;SDS011;35517;45.272;9.984;2023-04-05T03:20:28;11.35;;;4.07;;
49614;SDS011;35517;45.272;9.984;2023-04-05T03:22:58;8.50;;;4.45;;
49614;SDS011;35517;45.272;9.984;2023-04-05T03:25:29;10.68;;;3.72;;
49614;SDS011;35517;45.272;9.984;2023-04-05T03:27:56;8.50;;;4.03;;
49614;SDS011;35517;45.272;9.984;2023-04-05T03:30:28;9.75;;;4.38;;
49614;SDS011;35517;45.272;9.984;2023-04-05T03:33:02;7.05;;;4.50;;
49614;SDS011;35517;45.272;9.984;2023-04-05T03:35:47;8.90;;;4.30;;
49614;SDS011;35517;45.272;9.984;2023-04-05T03:38:14;7.60;;;4.40;;
49614;SDS011;35517;45.272;9.984;2023-04-05T03:40:50;8.65;;;5.75;;
49614;SDS011;35517;45.272;9.984;2023-04-05T03:43:16;9.25;;;4.72;;
49614;SDS011;35517;45.272;9.984;2023-04-05T03:45:43;10.88;;;4.60;;
49614;SDS011;35517;45.272;9.984;2023-04-05T03:48:10;11.73;;;5.10;;
49614;SDS011;35517;45.272;9.984;2023-04-05T03:50:36;14.38;;;5.15;;
49614;SDS011;35517;45.272;9.984;2023-04-05T03:53:03;8.52;;;4.68;;
49614;SDS011;35517;45.272;9.984;2023-04-05T03:55:30;9.18;;;4.25;;
49614;SDS011;35517;45.272;9.984;2023-04-05T03:58:01;7.60;;;4.90;;
49614;SDS011;35517;45.272;9.984;2023-04-05T04:00:32;12.82;;;4.93;;
49614;SDS011;35517;45.272;9.984;2023-04-05T04:03:13;14.65;;;4.70;;
49614;SDS011;35517;45.272;9.984;2023-04-05T04:05:43;9.00;;;5.18;;
49614;SDS011;35517;45.272;9.984;2023-04-05T04:08:10;9.40;;;4.93;;
49614;SDS011;35517;45.272;9.984;2023-04-05T04:10:38;12.57;;;5.75;;
49614;SDS011;35517;45.272;9.984;2023-04-05T04:13:14;7.90;;;4.10;;
49614;SDS011;35517;45.272;9.984;2023-04-05T04:15:41;11.32;;;4.95;;
49614;SDS011;35517;45.272;9.984;2023-04-05T04:18:40;11.70;;;5.03;;
49614;SDS011;35517;45.272;9.984;2023-04-05T04:21:06;7.72;;;5.30;;
49614;SDS011;35517;45.272;9.984;2023-04-05T04:23:51;9.77;;;4.93;;
49614;SDS011;35517;45.272;9.984;2023-04-05T04:26:38;11.35;;;5.25;;
49614;SDS011;35517;45.272;9.984;2023-04-05T04:29:35;8.77;;;4.97;;
49614;SDS011;35517;45.272;9.984;2023-04-05T04:32:31;6.55;;;4.75;;
49614;SDS011;35517;45.272;9.984;2023-04-05T04:35:33;11.63;;;5.70;;
49614;SDS011;35517;45.272;9.984;2023-04-05T04:38:29;6.93;;;5.20;;
49614;SDS011;35517;45.272;9.984;2023-04-05T04:40:59;10.35;;;5.95;;
49614;SDS011;35517;45.272;9.984;2023-04-05T04:43:41;13.50;;;6.57;;
49614;SDS011;35517;45.272;9.984;2023-04-05T04:46:37;13.95;;;6.78;;
49614;SDS011;35517;45.272;9.984;2023-04-05T04:49:26;12.07;;;5.60;;
49614;SDS011;35517;45.272;9.984;2023-04-05T04:51:52;11.43;;;6.25;;
49614;SDS011;35517;45.272;9.984;2023-04-05T04:54:22;18.60;;;4.80;;
49614;SDS011;35517;45.272;9.984;2023-04-05T04:56:48;9.27;;;4.20;;
49614;SDS011;35517;45.272;9.984;2023-04-05T04:59:15;8.93;;;4.72;;
49614;SDS011;35517;45.272;9.984;2023-04-05T05:01:43;14.48;;;5.30;;
49614;SDS011;35517;45.272;9.984;2023-04-05T05:04:10;15.32;;;5.10;;
49614;SDS011;35517;45.272;9.984;2023-04-05T05:06:38;14.20;;;5.13;;
49614;SDS011;35517;45.272;9.984;2023-04-05T05:09:05;10.63;;;4.72;;
49614;SDS011;35517;45.272;9.984;2023-04-05T05:11:36;10.60;;;4.70;;
49614;SDS011;35517;45.272;9.984;2023-04-05T05:14:06;15.00;;;5.45;;
49614;SDS011;35517;45.272;9.984;2023-04-05T05:16:32;8.80;;;5.03;;
49614;SDS011;35517;45.272;9.984;2023-04-05T05:18:59;10.88;;;3.88;;
49614;SDS011;35517;45.272;9.984;2023-04-05T05:21:33;8.00;;;4.78;;
49614;SDS011;35517;45.272;9.984;2023-04-05T05:24:00;8.98;;;4.20;;
49614;SDS011;35517;45.272;9.984;2023-04-05T05:26:27;9.60;;;5.40;;
49614;SDS011;35517;45.272;9.984;2023-04-05T05:28:53;10.25;;;4.93;;
49614;SDS011;35517;45.272;9.984;2023-04-05T05:31:22;11.07;;;5.38;;
49614;SDS011;35517;45.272;9.984;2023-04-05T05:33:49;11.95;;;6.95;;
49614;SDS011;35517;45.272;9.984;2023-04-05T05:36:16;14.43;;;5.28;;
49614;SDS011;35517;45.272;9.984;2023-04-05T05:38:44;10.48;;;4.50;;
49614;SDS011;35517;45.272;9.984;2023-04-05T05:41:10;15.88;;;6.05;;
49614;SDS011;35517;45.272;9.984;2023-04-05T05:43:37;7.93;;;5.85;;
49614;SDS011;35517;45.272;9.984;2023-04-05T05:46:03;14.25;;;5.72;;
49614;SDS011;35517;45.272;9.984;2023-04-05T05:48:30;15.05;;;5.93;;
49614;SDS011;35517;45.272;9.984;2023-04-05T05:50:57;13.23;;;5.15;;
49614;SDS011;35517;45.272;9.984;2023-04-05T05:53:37;35.03;;;9.10;;
49614;SDS011;35517;45.272;9.984;2023-04-05T05:56:04;11.55;;;6.15;;
49614;SDS011;35517;45.272;9.984;2023-04-05T05:58:31;12.98;;;5.40;;
49614;SDS011;35517;45.272;9.984;2023-04-05T06:00:58;24.50;;;5.85;;
49614;SDS011;35517;45.272;9.984;2023-04-05T06:03:24;7.57;;;4.72;;
49614;SDS011;35517;45.272;9.984;2023-04-05T06:05:51;16.15;;;6.75;;
49614;SDS011;35517;45.272;9.984;2023-04-05T06:08:18;12.55;;;7.35;;
49614;SDS011;35517;45.272;9.984;2023-04-05T06:10:44;16.45;;;7.22;;
49614;SDS011;35517;45.272;9.984;2023-04-05T06:13:11;16.20;;;6.75;;
49614;SDS011;35517;45.272;9.984;2023-04-05T06:15:37;11.70;;;5.47;;
49614;SDS011;35517;45.272;9.984;2023-04-05T06:18:04;7.07;;;4.53;;
49614;SDS011;35517;45.272;9.984;2023-04-05T06:20:30;6.68;;;4.88;;
49614;SDS011;35517;45.272;9.984;2023-04-05T06:22:57;11.55;;;4.85;;
49614;SDS011;35517;45.272;9.984;2023-04-05T06:25:23;7.32;;;4.63;;
49614;SDS011;35517;45.272;9.984;2023-04-05T06:27:50;7.22;;;4.22;;
49614;SDS011;35517;45.272;9.984;2023-04-05T06:30:16;9.40;;;4.13;;
49614;SDS011;35517;45.272;9.984;2023-04-05T06:32:43;13.95;;;5.22;;
49614;SDS011;35517;45.272;9.984;2023-04-05T06:35:09;7.20;;;3.83;;
49614;SDS011;35517;45.272;9.984;2023-04-05T06:37:36;7.50;;;3.53;;
49614;SDS011;35517;45.272;9.984;2023-04-05T06:40:02;10.70;;;5.18;;
49614;SDS011;35517;45.272;9.984;2023-04-05T06:42:29;7.05;;;4.53;;
49614;SDS011;35517;45.272;9.984;2023-04-05T06:45:01;13.43;;;4.90;;
49614;SDS011;35517;45.272;9.984;2023-04-05T06:47:31;7.65;;;3.60;;
49614;SDS011;35517;45.272;9.984;2023-04-05T06:49:58;7.32;;;3.53;;
49614;SDS011;35517;45.272;9.984;2023-04-05T06:52:24;15.95;;;4.13;;
49614;SDS011;35517;45.272;9.984;2023-04-05T06:54:51;11.07;;;4.15;;
49614;SDS011;35517;45.272;9.984;2023-04-05T06:57:17;15.93;;;4.72;;
49614;SDS011;35517;45.272;9.984;2023-04-05T06:59:44;8.00;;;3.88;;
49614;SDS011;35517;45.272;9.984;2023-04-05T07:02:11;13.48;;;4.15;;
49614;SDS011;35517;45.272;9.984;2023-04-05T07:04:37;9.13;;;3.65;;
49614;SDS011;35517;45.272;9.984;2023-04-05T07:07:04;7.82;;;3.65;;
49614;SDS011;35517;45.272;9.984;2023-04-05T07:09:31;6.10;;;3.33;;
49614;SDS011;35517;45.272;9.984;2023-04-05T07:11:58;6.50;;;3.25;;
49614;SDS011;35517;45.272;9.984;2023-04-05T07:14:25;7.68;;;3.47;;
49614;SDS011;35517;45.272;9.984;2023-04-05T07:16:52;13.35;;;4.07;;
49614;SDS011;35517;45.272;9.984;2023-04-05T07:19:18;9.15;;;3.55;;
49614;SDS011;35517;45.272;9.984;2023-04-05T07:21:45;12.85;;;3.95;;
49614;SDS011;35517;45.272;9.984;2023-04-05T07:24:11;6.70;;;2.40;;
49614;SDS011;35517;45.272;9.984;2023-04-05T07:26:38;6.75;;;2.90;;
49614;SDS011;35517;45.272;9.984;2023-04-05T07:29:05;4.13;;;2.30;;
49614;SDS011;35517;45.272;9.984;2023-04-05T07:31:33;8.45;;;2.53;;
49614;SDS011;35517;45.272;9.984;2023-04-05T07:33:59;6.45;;;3.20;;
49614;SDS011;35517;45.272;9.984;2023-04-05T07:36:26;7.15;;;2.65;;
49614;SDS011;35517;45.272;9.984;2023-04-05T07:38:55;6.03;;;3.30;;
49614;SDS011;35517;45.272;9.984;2023-04-05T07:41:23;5.22;;;3.03;;
49614;SDS011;35517;45.272;9.984;2023-04-05T07:43:50;9.30;;;2.60;;
49614;SDS011;35517;45.272;9.984;2023-04-05T07:46:17;5.75;;;2.20;;
49614;SDS011;35517;45.272;9.984;2023-04-05T07:48:45;7.18;;;2.65;;
49614;SDS011;35517;45.272;9.984;2023-04-05T07:51:13;6.80;;;2.72;;
49614;SDS011;35517;45.272;9.984;2023-04-05T07:53:40;5.63;;;2.35;;
49614;SDS011;35517;45.272;9.984;2023-04-05T07:56:10;7.88;;;2.75;;
49614;SDS011;35517;45.272;9.984;2023-04-05T07:58:38;7.22;;;2.47;;
49614;SDS011;35517;45.272;9.984;2023-04-05T08:01:06;8.95;;;2.97;;
49614;SDS011;35517;45.272;9.984;2023-04-05T08:03:32;5.40;;;2.00;;
49614;SDS011;35517;45.272;9.984;2023-04-05T08:06:14;4.53;;;1.92;;
49614;SDS011;35517;45.272;9.984;2023-04-05T08:08:44;7.50;;;3.10;;
49614;SDS011;35517;45.272;9.984;2023-04-05T08:11:12;8.65;;;3.47;;
49614;SDS011;35517;45.272;9.984;2023-04-05T08:13:39;5.35;;;2.70;;
49614;SDS011;35517;45.272;9.984;2023-04-05T08:16:09;5.65;;;2.90;;
49614;SDS011;35517;45.272;9.984;2023-04-05T08:18:36;8.48;;;3.25;;
49614;SDS011;35517;45.272;9.984;2023-04-05T08:21:02;9.00;;;3.65;;
49614;SDS011;35517;45.272;9.984;2023-04-05T08:23:29;8.32;;;2.55;;
49614;SDS011;35517;45.272;9.984;2023-04-05T08:25:56;4.93;;;2.72;;
49614;SDS011;35517;45.272;9.984;2023-04-05T08:28:23;10.38;;;3.10;;
49614;SDS011;35517;45.272;9.984;2023-04-05T08:30:53;6.32;;;2.50;;
49614;SDS011;35517;45.272;9.984;2023-04-05T08:33:22;8.38;;;2.83;;
49614;SDS011;35517;45.272;9.984;2023-04-05T08:35:51;7.70;;;3.05;;
49614;SDS011;35517;45.272;9.984;2023-04-05T08:38:17;6.80;;;2.55;;
49614;SDS011;35517;45.272;9.984;2023-04-05T08:40:45;7.72;;;1.90;;
49614;SDS011;35517;45.272;9.984;2023-04-05T08:43:22;4.88;;;2.50;;
49614;SDS011;35517;45.272;9.984;2023-04-05T08:45:51;9.55;;;2.60;;
49614;SDS011;35517;45.272;9.984;2023-04-05T08:48:18;3.47;;;1.95;;
49614;SDS011;35517;45.272;9.984;2023-04-05T08:50:49;6.95;;;1.90;;
49614;SDS011;35517;45.272;9.984;2023-04-05T08:53:16;6.70;;;2.42;;
49614;SDS011;35517;45.272;9.984;2023-04-05T08:55:42;4.97;;;1.70;;
49614;SDS011;35517;45.272;9.984;2023-04-05T08:58:12;5.22;;;2.35;;
49614;SDS011;35517;45.272;9.984;2023-04-05T09:00:39;5.53;;;2.50;;
49614;SDS011;35517;45.272;9.984;2023-04-05T09:03:07;3.75;;;2.55;;
49614;SDS011;35517;45.272;9.984;2023-04-05T09:05:38;4.20;;;2.10;;
49614;SDS011;35517;45.272;9.984;2023-04-05T09:08:04;5.15;;;2.97;;
49614;SDS011;35517;45.272;9.984;2023-04-05T09:10:31;5.93;;;2.10;;
49614;SDS011;35517;45.272;9.984;2023-04-05T09:12:58;5.03;;;1.92;;
49614;SDS011;35517;45.272;9.984;2023-04-05T09:15:27;6.32;;;2.10;;
49614;SDS011;35517;45.272;9.984;2023-04-05T09:17:54;4.80;;;2.03;;
49614;SDS011;35517;45.272;9.984;2023-04-05T09:20:21;7.75;;;1.92;;
49614;SDS011;35517;45.272;9.984;2023-04-05T09:22:48;7.85;;;2.42;;
49614;SDS011;35517;45.272;9.984;2023-04-05T09:25:34;7.72;;;2.40;;
49614;SDS011;35517;45.272;9.984;2023-04-05T09:28:02;3.47;;;1.85;;
49614;SDS011;35517;45.272;9.984;2023-04-05T09:30:29;6.45;;;2.40;;
49614;SDS011;35517;45.272;9.984;2023-04-05T09:32:56;5.22;;;1.88;;
49614;SDS011;35517;45.272;9.984;2023-04-05T09:35:26;5.18;;;1.77;;
49614;SDS011;35517;45.272;9.984;2023-04-05T09:37:54;5.55;;;2.13;;
49614;SDS011;35517;45.272;9.984;2023-04-05T09:40:23;4.43;;;1.98;;
49614;SDS011;35517;45.272;9.984;2023-04-05T09:42:49;6.80;;;1.83;;
49614;SDS011;35517;45.272;9.984;2023-04-05T09:45:18;6.07;;;2.83;;
49614;SDS011;35517;45.272;9.984;2023-04-05T09:47:55;4.68;;;1.60;;
49614;SDS011;35517;45.272;9.984;2023-04-05T09:50:22;8.40;;;2.85;;
49614;SDS011;35517;45.272;9.984;2023-04-05T09:52:50;5.10;;;2.10;;
49614;SDS011;35517;45.272;9.984;2023-04-05T09:55:24;6.40;;;1.80;;
49614;SDS011;35517;45.272;9.984;2023-04-05T09:57:51;4.82;;;2.13;;
49614;SDS011;35517;45.272;9.984;2023-04-05T10:00:18;6.32;;;2.03;;
49614;SDS011;35517;45.272;9.984;2023-04-05T10:02:45;3.53;;;1.77;;
49614;SDS011;35517;45.272;9.984;2023-04-05T10:05:12;3.42;;;1.67;;
49614;SDS011;35517;45.272;9.984;2023-04-05T10:07:40;3.53;;;2.05;;
49614;SDS011;35517;45.272;9.984;2023-04-05T10:10:10;6.78;;;2.17;;
49614;SDS011;35517;45.272;9.984;2023-04-05T10:12:38;12.63;;;4.35;;
49614;SDS011;35517;45.272;9.984;2023-04-05T10:15:06;4.28;;;1.85;;
49614;SDS011;35517;45.272;9.984;2023-04-05T10:27:46;8.80;;;2.05;;
49614;SDS011;35517;45.272;9.984;2023-04-05T10:30:13;3.42;;;2.33;;
49614;SDS011;35517;45.272;9.984;2023-04-05T10:35:23;7.28;;;2.78;;
49614;SDS011;35517;45.272;9.984;2023-04-05T10:38:04;6.35;;;2.28;;
49614;SDS011;35517;45.272;9.984;2023-04-05T10:40:34;4.30;;;2.22;;
49614;SDS011;35517;45.272;9.984;2023-04-05T10:43:02;5.20;;;2.58;;
49614;SDS011;35517;45.272;9.984;2023-04-05T10:45:29;5.97;;;2.47;;
49614;SDS011;35517;45.272;9.984;2023-04-05T10:47:58;9.80;;;3.00;;
49614;SDS011;35517;45.272;9.984;2023-04-05T10:50:28;5.65;;;2.33;;
49614;SDS011;35517;45.272;9.984;2023-04-05T10:52:55;4.05;;;2.50;;
49614;SDS011;35517;45.272;9.984;2023-04-05T10:55:23;4.75;;;2.40;;
49614;SDS011;35517;45.272;9.984;2023-04-05T10:57:50;9.50;;;2.38;;
49614;SDS011;35517;45.272;9.984;2023-04-05T11:00:17;6.28;;;2.40;;
49614;SDS011;35517;45.272;9.984;2023-04-05T11:02:43;2.65;;;2.25;;
49614;SDS011;35517;45.272;9.984;2023-04-05T11:07:58;6.75;;;3.72;;
49614;SDS011;35517;45.272;9.984;2023-04-05T11:10:25;6.43;;;2.60;;
49614;SDS011;35517;45.272;9.984;2023-04-05T11:20:48;5.43;;;2.65;;
49614;SDS011;35517;45.272;9.984;2023-04-05T11:23:21;3.45;;;2.35;;
49614;SDS011;35517;45.272;9.984;2023-04-05T11:25:53;8.32;;;2.97;;
49614;SDS011;35517;45.272;9.984;2023-04-05T11:28:23;6.53;;;2.60;;
49614;SDS011;35517;45.272;9.984;2023-04-05T11:30:51;3.30;;;2.53;;
49614;SDS011;35517;45.272;9.984;2023-04-05T11:36:03;16.92;;;2.90;;
49614;SDS011;35517;45.272;9.984;2023-04-05T11:38:30;5.13;;;3.13;;
49614;SDS011;35517;45.272;9.984;2023-04-05T11:41:15;3.83;;;2.80;;
49614;SDS011;35517;45.272;9.984;2023-04-05T11:43:42;6.53;;;3.08;;
49614;SDS011;35517;45.272;9.984;2023-04-05T11:46:09;6.82;;;4.00;;
49614;SDS011;35517;45.272;9.984;2023-04-05T11:48:36;11.77;;;3.45;;
49614;SDS011;35517;45.272;9.984;2023-04-05T11:51:06;6.15;;;3.50;;
49614;SDS011;35517;45.272;9.984;2023-04-05T11:56:09;8.50;;;3.58;;
49614;SDS011;35517;45.272;9.984;2023-04-05T11:58:40;5.80;;;3.15;;
49614;SDS011;35517;45.272;9.984;2023-04-05T12:01:08;9.93;;;3.08;;
49614;SDS011;35517;45.272;9.984;2023-04-05T12:03:35;4.20;;;2.88;;
49614;SDS011;35517;45.272;9.984;2023-04-05T12:06:03;7.53;;;2.92;;
49614;SDS011;35517;45.272;9.984;2023-04-05T12:08:42;6.35;;;3.28;;
49614;SDS011;35517;45.272;9.984;2023-04-05T12:11:25;4.85;;;2.70;;
49614;SDS011;35517;45.272;9.984;2023-04-05T12:13:59;4.47;;;2.90;;
49614;SDS011;35517;45.272;9.984;2023-04-05T12:16:26;4.35;;;3.20;;
49614;SDS011;35517;45.272;9.984;2023-04-05T12:18:53;6.72;;;3.50;;
49614;SDS011;35517;45.272;9.984;2023-04-05T12:21:20;4.97;;;3.08;;
49614;SDS011;35517;45.272;9.984;2023-04-05T12:23:47;9.10;;;3.50;;
49614;SDS011;35517;45.272;9.984;2023-04-05T12:26:14;3.70;;;2.38;;
49614;SDS011;35517;45.272;9.984;2023-04-05T12:28:57;14.88;;;4.57;;
49614;SDS011;35517;45.272;9.984;2023-04-05T12:33:50;5.60;;;3.03;;
49614;SDS011;35517;45.272;9.984;2023-04-05T12:36:25;3.67;;;3.03;;
49614;SDS011;35517;45.272;9.984;2023-04-05T12:38:55;5.30;;;2.58;;
49614;SDS011;35517;45.272;9.984;2023-04-05T12:41:28;6.50;;;2.85;;
49614;SDS011;35517;45.272;9.984;2023-04-05T12:43:55;5.18;;;2.85;;
49614;SDS011;35517;45.272;9.984;2023-04-05T12:46:39;4.60;;;3.15;;
49614;SDS011;35517;45.272;9.984;2023-04-05T12:50:15;5.20;;;3.20;;
49614;SDS011;35517;45.272;9.984;2023-04-05T12:52:54;5.55;;;3.40;;
49614;SDS011;35517;45.272;9.984;2023-04-05T12:55:21;8.68;;;2.97;;
49614;SDS011;35517;45.272;9.984;2023-04-05T12:57:48;6.15;;;3.65;;
49614;SDS011;35517;45.272;9.984;2023-04-05T13:00:16;6.70;;;3.90;;
49614;SDS011;35517;45.272;9.984;2023-04-05T13:02:42;6.00;;;3.33;;
49614;SDS011;35517;45.272;9.984;2023-04-05T13:05:09;8.43;;;3.85;;
49614;SDS011;35517;45.272;9.984;2023-04-05T13:07:35;4.93;;;3.10;;
49614;SDS011;35517;45.272;9.984;2023-04-05T13:10:02;6.70;;;3.10;;
49614;SDS011;35517;45.272;9.984;2023-04-05T13:12:28;5.05;;;3.20;;
49614;SDS011;35517;45.272;9.984;2023-04-05T13:14:55;10.35;;;4.15;;
49614;SDS011;35517;45.272;9.984;2023-04-05T13:17:21;4.35;;;3.45;;
49614;SDS011;35517;45.272;9.984;2023-04-05T13:19:47;4.25;;;2.72;;
49614;SDS011;35517;45.272;9.984;2023-04-05T13:22:14;9.57;;;3.42;;
49614;SDS011;35517;45.272;9.984;2023-04-05T13:24:40;5.45;;;2.97;;
49614;SDS011;35517;45.272;9.984;2023-04-05T13:27:07;4.88;;;2.78;;
49614;SDS011;35517;45.272;9.984;2023-04-05T13:29:33;11.27;;;3.28;;
49614;SDS011;35517;45.272;9.984;2023-04-05T13:32:00;10.77;;;3.00;;
49614;SDS011;35517;45.272;9.984;2023-04-05T13:34:26;65.18;;;6.47;;
49614;SDS011;35517;45.272;9.984;2023-04-05T13:36:53;5.40;;;2.90;;
49614;SDS011;35517;45.272;9.984;2023-04-05T13:39:19;5.85;;;3.35;;
49614;SDS011;35517;45.272;9.984;2023-04-05T13:41:46;10.85;;;2.83;;
49614;SDS011;35517;45.272;9.984;2023-04-05T13:44:12;6.68;;;2.85;;
49614;SDS011;35517;45.272;9.984;2023-04-05T13:46:39;5.35;;;2.60;;
49614;SDS011;35517;45.272;9.984;2023-04-05T13:49:05;6.60;;;3.03;;
49614;SDS011;35517;45.272;9.984;2023-04-05T13:51:32;7.32;;;3.63;;
49614;SDS011;35517;45.272;9.984;2023-04-05T13:54:00;4.82;;;3.03;;
49614;SDS011;35517;45.272;9.984;2023-04-05T13:56:26;5.10;;;2.55;;
49614;SDS011;35517;45.272;9.984;2023-04-05T13:58:53;5.43;;;3.30;;
49614;SDS011;35517;45.272;9.984;2023-04-05T14:01:19;7.00;;;3.22;;
49614;SDS011;35517;45.272;9.984;2023-04-05T14:03:46;7.47;;;2.72;;
49614;SDS011;35517;45.272;9.984;2023-04-05T14:06:12;6.05;;;3.22;;
49614;SDS011;35517;45.272;9.984;2023-04-05T14:08:39;6.20;;;3.30;;
49614;SDS011;35517;45.272;9.984;2023-04-05T14:11:05;7.25;;;3.42;;
49614;SDS011;35517;45.272;9.984;2023-04-05T14:13:32;4.28;;;2.78;;
49614;SDS011;35517;45.272;9.984;2023-04-05T14:15:58;12.95;;;3.88;;
49614;SDS011;35517;45.272;9.984;2023-04-05T14:18:25;7.85;;;2.92;;
49614;SDS011;35517;45.272;9.984;2023-04-05T14:20:52;5.38;;;2.90;;
49614;SDS011;35517;45.272;9.984;2023-04-05T14:23:21;4.93;;;2.63;;
49614;SDS011;35517;45.272;9.984;2023-04-05T14:25:47;4.25;;;2.92;;
49614;SDS011;35517;45.272;9.984;2023-04-05T14:28:14;10.15;;;2.90;;
49614;SDS011;35517;45.272;9.984;2023-04-05T14:30:40;5.53;;;2.88;;
49614;SDS011;35517;45.272;9.984;2023-04-05T14:33:07;4.45;;;2.58;;
49614;SDS011;35517;45.272;9.984;2023-04-05T14:35:34;7.00;;;2.92;;
49614;SDS011;35517;45.272;9.984;2023-04-05T14:38:00;13.90;;;4.22;;
49614;SDS011;35517;45.272;9.984;2023-04-05T14:40:26;5.95;;;3.40;;
49614;SDS011;35517;45.272;9.984;2023-04-05T14:42:53;6.70;;;3.35;;
49614;SDS011;35517;45.272;9.984;2023-04-05T14:45:19;12.88;;;3.58;;
49614;SDS011;35517;45.272;9.984;2023-04-05T14:47:47;8.48;;;3.40;;
49614;SDS011;35517;45.272;9.984;2023-04-05T14:50:14;10.55;;;4.18;;
49614;SDS011;35517;45.272;9.984;2023-04-05T14:52:40;4.35;;;3.15;;
49614;SDS011;35517;45.272;9.984;2023-04-05T14:55:07;3.70;;;2.75;;
49614;SDS011;35517;45.272;9.984;2023-04-05T14:57:33;4.25;;;3.03;;
49614;SDS011;35517;45.272;9.984;2023-04-05T15:00:00;6.18;;;3.30;;
49614;SDS011;35517;45.272;9.984;2023-04-05T15:02:27;7.25;;;2.92;;
49614;SDS011;35517;45.272;9.984;2023-04-05T15:04:53;16.58;;;3.75;;
49614;SDS011;35517;45.272;9.984;2023-04-05T15:07:20;8.88;;;3.65;;
49614;SDS011;35517;45.272;9.984;2023-04-05T15:09:46;6.70;;;3.47;;
49614;SDS011;35517;45.272;9.984;2023-04-05T15:12:13;4.03;;;2.85;;
49614;SDS011;35517;45.272;9.984;2023-04-05T15:14:39;11.02;;;3.45;;
49614;SDS011;35517;45.272;9.984;2023-04-05T15:17:06;6.85;;;3.55;;
49614;SDS011;35517;45.272;9.984;2023-04-05T15:19:32;4.95;;;2.88;;
49614;SDS011;35517;45.272;9.984;2023-04-05T15:22:00;6.32;;;3.50;;
49614;SDS011;35517;45.272;9.984;2023-04-05T15:24:27;5.00;;;3.67;;
49614;SDS011;35517;45.272;9.984;2023-04-05T15:26:53;5.75;;;2.92;;
49614;SDS011;35517;45.272;9.984;2023-04-05T15:29:29;4.40;;;2.95;;
49614;SDS011;35517;45.272;9.984;2023-04-05T15:31:56;6.18;;;3.15;;
49614;SDS011;35517;45.272;9.984;2023-04-05T15:34:23;7.28;;;3.38;;
49614;SDS011;35517;45.272;9.984;2023-04-05T15:36:50;5.50;;;3.28;;
49614;SDS011;35517;45.272;9.984;2023-04-05T15:39:17;6.93;;;3.30;;
49614;SDS011;35517;45.272;9.984;2023-04-05T15:41:44;6.15;;;3.30;;